createdAt,value
2023-03-04T00:00:54.047Z,11.83
2023-03-04T00:03:23.038Z,11.90
2023-03-04T00:05:50.613Z,11.70
2023-03-04T00:08:18.144Z,11.67
2023-03-04T00:10:45.721Z,10.87
2023-03-04T00:13:13.259Z,11.70
2023-03-04T00:15:40.927Z,11.40
2023-03-04T00:18:09.224Z,12.57
2023-03-04T00:20:38.165Z,13.63
2023-03-04T00:23:05.774Z,11.60
2023-03-04T00:25:33.605Z,12.53
2023-03-04T00:28:01.285Z,11.87
2023-03-04T00:30:28.839Z,11.17
2023-03-04T00:32:56.359Z,12.37
2023-03-04T00:35:23.928Z,12.00
2023-03-04T00:37:52.846Z,11.70
2023-03-04T00:40:20.405Z,12.70
2023-03-04T00:42:47.963Z,12.30
2023-03-04T00:45:15.589Z,11.97
2023-03-04T00:47:43.348Z,13.00
2023-03-04T00:50:11.995Z,12.03
2023-03-04T00:52:39.590Z,12.33
2023-03-04T00:55:09.967Z,12.67
2023-03-04T00:57:37.509Z,11.80
2023-03-04T01:00:06.101Z,12.50
2023-03-04T01:02:33.785Z,12.43
2023-03-04T01:05:01.369Z,11.63
2023-03-04T01:07:28.899Z,12.27
2023-03-04T01:09:56.542Z,13.27
2023-03-04T01:12:25.384Z,12.90
2023-03-04T01:14:52.975Z,13.17
2023-03-04T01:17:20.589Z,12.83
2023-03-04T01:19:48.209Z,11.83
2023-03-04T01:22:16.746Z,12.90
2023-03-04T01:24:44.425Z,12.00
2023-03-04T01:27:12.215Z,12.37
2023-03-04T01:29:41.122Z,10.87
2023-03-04T01:32:08.675Z,11.60
2023-03-04T01:34:36.253Z,11.87
2023-03-04T01:37:03.797Z,11.27
2023-03-04T01:39:31.358Z,10.97
2023-03-04T01:41:59.284Z,10.63
2023-03-04T01:44:26.847Z,12.33
2023-03-04T01:46:56.916Z,12.27
2023-03-04T01:49:24.512Z,13.40
2023-03-04T01:51:55.224Z,11.80
2023-03-04T01:54:23.800Z,11.70
2023-03-04T01:56:52.294Z,12.70
2023-03-04T01:59:21.866Z,12.10
2023-03-04T02:01:51.870Z,11.30
2023-03-04T02:04:22.758Z,12.40
2023-03-04T02:06:51.258Z,11.70
2023-03-04T02:09:19.491Z,11.90
2023-03-04T02:11:48.110Z,12.40
2023-03-04T02:14:16.549Z,11.43
2023-03-04T02:16:44.174Z,11.17
2023-03-04T02:19:17.483Z,12.70
2023-03-04T02:21:46.449Z,11.57
2023-03-04T02:24:17.165Z,12.50
2023-03-04T02:26:47.037Z,12.23
2023-03-04T02:29:16.013Z,11.53
2023-03-04T02:31:44.961Z,12.63
2023-03-04T02:34:15.200Z,12.03
2023-03-04T02:36:44.451Z,12.30
2023-03-04T02:39:22.009Z,13.33
2023-03-04T02:41:52.856Z,13.53
2023-03-04T02:44:22.639Z,12.60
2023-03-04T02:46:51.664Z,13.03
2023-03-04T02:49:20.431Z,12.63
2023-03-04T02:51:49.493Z,13.53
2023-03-04T02:54:17.864Z,12.43
2023-03-04T02:56:49.500Z,13.30
2023-03-04T02:59:18.970Z,12.60
2023-03-04T03:01:46.646Z,13.00
2023-03-04T03:04:14.329Z,12.70
2023-03-04T03:06:42.367Z,13.93
2023-03-04T03:09:10.144Z,14.20
2023-03-04T03:11:37.929Z,12.77
2023-03-04T03:14:06.289Z,14.97
2023-03-04T03:16:35.674Z,12.87
2023-03-04T03:19:03.522Z,13.90
2023-03-04T03:21:31.079Z,12.90
2023-03-04T03:23:58.719Z,13.60
2023-03-04T03:26:26.255Z,14.10
2023-03-04T03:28:53.819Z,12.93
2023-03-04T03:31:21.379Z,14.07
2023-03-04T03:33:50.336Z,13.97
2023-03-04T03:36:17.898Z,12.70
2023-03-04T03:38:45.461Z,13.73
2023-03-04T03:41:13.018Z,13.10
2023-03-04T03:43:40.526Z,12.67
2023-03-04T03:46:08.146Z,13.97
2023-03-04T03:48:35.772Z,12.33
2023-03-04T03:51:04.871Z,13.43
2023-03-04T03:53:32.425Z,12.53
2023-03-04T03:56:00.093Z,13.33
2023-03-04T03:58:27.618Z,12.20
2023-03-04T04:00:58.138Z,12.27
2023-03-04T04:03:26.182Z,12.10
2023-03-04T04:05:53.793Z,13.63
2023-03-04T04:08:22.804Z,13.33
2023-03-04T04:10:50.418Z,10.80
2023-03-04T04:13:17.978Z,11.00
2023-03-04T04:15:45.540Z,11.80
2023-03-04T04:18:13.102Z,11.23
2023-03-04T04:20:40.669Z,11.20
2023-03-04T04:23:08.235Z,11.43
2023-03-04T04:25:37.174Z,11.17
2023-03-04T04:28:05.025Z,11.87
2023-03-04T04:30:32.611Z,11.50
2023-03-04T04:33:01.855Z,11.70
2023-03-04T04:35:29.413Z,11.10
2023-03-04T04:37:56.952Z,12.17
2023-03-04T04:40:24.524Z,11.07
2023-03-04T04:42:53.500Z,11.27
2023-03-04T04:45:21.430Z,12.33
2023-03-04T04:47:48.940Z,11.67
2023-03-04T04:50:16.758Z,12.03
2023-03-04T04:52:44.288Z,13.00
2023-03-04T04:55:12.162Z,12.37
2023-03-04T04:57:39.724Z,11.50
2023-03-04T05:00:10.842Z,11.93
2023-03-04T05:02:38.555Z,11.50
2023-03-04T05:05:07.792Z,10.67
2023-03-04T05:07:35.428Z,10.90
2023-03-04T05:10:03.028Z,11.87
2023-03-04T05:12:30.558Z,12.30
2023-03-04T05:14:58.109Z,12.70
2023-03-04T05:17:26.948Z,11.67
2023-03-04T05:19:54.525Z,11.97
2023-03-04T05:22:22.042Z,12.30
2023-03-04T05:24:49.615Z,12.37
2023-03-04T05:27:17.758Z,11.83
2023-03-04T05:29:46.777Z,11.87
2023-03-04T05:32:14.952Z,11.27
2023-03-04T05:34:43.923Z,12.77
2023-03-04T05:37:11.462Z,13.37
2023-03-04T05:39:39.029Z,15.47
2023-03-04T05:42:06.625Z,15.77
2023-03-04T05:44:34.130Z,16.63
2023-03-04T05:47:01.664Z,13.70
2023-03-04T05:49:29.381Z,12.83
2023-03-04T05:51:58.260Z,14.10
2023-03-04T05:54:25.762Z,16.87
2023-03-04T05:56:54.709Z,15.47
2023-03-04T05:59:23.473Z,15.40
2023-03-04T06:01:51.372Z,15.80
2023-03-04T06:04:19.108Z,12.63
2023-03-04T06:06:47.342Z,12.20
2023-03-04T06:09:16.388Z,12.63
2023-03-04T06:11:44.028Z,12.00
2023-03-04T06:14:11.599Z,13.03
2023-03-04T06:16:39.330Z,12.70
2023-03-04T06:19:06.902Z,13.57
2023-03-04T06:21:34.444Z,13.10
2023-03-04T06:24:02.045Z,13.83
2023-03-04T06:26:34.072Z,16.57
2023-03-04T06:29:01.650Z,14.23
2023-03-04T06:31:29.193Z,15.73
2023-03-04T06:33:56.750Z,13.73
2023-03-04T06:36:24.301Z,13.37
2023-03-04T06:38:51.994Z,13.77
2023-03-04T06:41:19.538Z,13.20
2023-03-04T06:43:48.409Z,14.20
2023-03-04T06:46:15.930Z,13.90
2023-03-04T06:48:43.454Z,14.93
2023-03-04T06:51:12.346Z,14.40
2023-03-04T06:53:40.407Z,13.20
2023-03-04T06:56:09.584Z,12.47
2023-03-04T06:58:37.828Z,13.63
2023-03-04T07:01:17.740Z,12.83
2023-03-04T07:03:45.931Z,12.13
2023-03-04T07:06:15.132Z,12.20
2023-03-04T07:08:43.338Z,12.30
2023-03-04T07:11:11.469Z,12.03
2023-03-04T07:13:39.496Z,12.27
2023-03-04T07:16:08.193Z,13.30
2023-03-04T07:18:38.013Z,12.43
2023-03-04T07:21:06.269Z,12.33
2023-03-04T07:23:34.384Z,11.60
2023-03-04T07:26:01.949Z,13.07
2023-03-04T07:28:29.818Z,12.37
2023-03-04T07:30:57.361Z,10.67
2023-03-04T07:33:24.886Z,12.73
2023-03-04T07:36:00.768Z,12.97
2023-03-04T07:38:28.857Z,12.23
2023-03-04T07:40:57.819Z,11.87
2023-03-04T07:43:25.691Z,11.33
2023-03-04T07:45:53.345Z,11.80
2023-03-04T07:48:20.931Z,11.90
2023-03-04T07:50:48.453Z,12.17
2023-03-04T07:53:17.331Z,12.17
2023-03-04T07:55:44.852Z,12.80
2023-03-04T07:58:12.385Z,12.87
2023-03-04T08:00:41.418Z,12.00
2023-03-04T08:03:09.074Z,12.27
2023-03-04T08:05:36.594Z,11.83
2023-03-04T08:08:04.329Z,11.80
2023-03-04T08:10:33.210Z,11.80
2023-03-04T08:13:00.766Z,11.37
2023-03-04T08:15:28.429Z,12.07
2023-03-04T08:17:55.930Z,11.97
2023-03-04T08:20:23.441Z,11.83
2023-03-04T08:22:52.080Z,10.83
2023-03-04T08:25:19.822Z,11.83
2023-03-04T08:27:48.701Z,12.20
2023-03-04T08:30:16.914Z,11.43
2023-03-04T08:32:44.572Z,11.30
2023-03-04T08:35:12.307Z,11.20
2023-03-04T08:37:39.856Z,11.40
2023-03-04T08:40:08.604Z,10.97
2023-03-04T08:42:36.136Z,11.93
2023-03-04T08:45:05.943Z,12.03
2023-03-04T08:47:34.069Z,11.23
2023-03-04T08:50:01.655Z,11.70
2023-03-04T08:52:29.955Z,11.77
2023-03-04T08:54:57.949Z,11.57
2023-03-04T08:57:25.666Z,11.30
2023-03-04T08:59:53.174Z,12.10
2023-03-04T09:02:22.110Z,11.63
2023-03-04T09:04:49.663Z,12.23
2023-03-04T09:07:17.241Z,11.97
2023-03-04T09:09:44.780Z,11.67
2023-03-04T09:12:12.523Z,12.43
2023-03-04T09:14:40.080Z,11.37
2023-03-04T09:17:07.815Z,11.97
2023-03-04T09:19:36.741Z,10.90
2023-03-04T09:22:04.281Z,11.60
2023-03-04T09:24:31.891Z,12.23
2023-03-04T09:26:59.752Z,10.77
2023-03-04T09:29:27.311Z,11.67
2023-03-04T09:31:54.852Z,10.97
2023-03-04T09:34:22.470Z,11.23
2023-03-04T09:36:51.354Z,11.93
2023-03-04T09:39:18.854Z,11.80
2023-03-04T09:41:48.891Z,11.93
2023-03-04T09:44:23.007Z,10.87
2023-03-04T09:46:51.738Z,10.67
2023-03-04T09:49:20.937Z,11.37
2023-03-04T09:51:56.718Z,11.53
2023-03-04T09:54:32.764Z,10.73
2023-03-04T09:57:03.736Z,10.83
2023-03-04T09:59:34.178Z,13.20
2023-03-04T10:02:04.656Z,11.03
2023-03-04T10:04:35.880Z,11.63
2023-03-04T10:07:06.334Z,12.73
2023-03-04T10:09:42.656Z,11.13
2023-03-04T10:12:13.786Z,11.67
2023-03-04T10:14:44.586Z,10.73
2023-03-04T10:17:15.328Z,11.73
2023-03-04T10:19:52.750Z,10.70
2023-03-04T10:22:28.288Z,11.13
2023-03-04T10:24:57.705Z,11.63
2023-03-04T10:27:25.430Z,11.43
2023-03-04T10:29:53.277Z,12.53
2023-03-04T10:32:21.919Z,13.27
2023-03-04T10:34:49.467Z,13.40
2023-03-04T10:37:17.037Z,12.03
2023-03-04T10:39:47.484Z,12.93
2023-03-04T10:42:29.924Z,12.30
2023-03-04T10:44:59.321Z,12.27
2023-03-04T10:47:29.493Z,12.63
2023-03-04T10:49:58.356Z,11.90
2023-03-04T10:52:30.687Z,12.87
2023-03-04T10:55:01.618Z,11.77
2023-03-04T10:57:35.240Z,13.70
2023-03-04T11:00:04.245Z,13.90
2023-03-04T11:02:33.211Z,13.60
2023-03-04T11:05:18.145Z,13.50
2023-03-04T11:07:55.284Z,14.40
2023-03-04T11:10:27.637Z,15.17
2023-03-04T11:13:01.052Z,14.33
2023-03-04T11:15:33.944Z,13.73
2023-03-04T11:18:04.482Z,13.93
2023-03-04T11:20:34.310Z,13.73
2023-03-04T11:23:06.547Z,13.60
2023-03-04T11:25:37.751Z,13.13
2023-03-04T11:28:11.130Z,13.87
2023-03-04T11:30:44.421Z,13.33
2023-03-04T11:33:21.042Z,14.30
2023-03-04T11:36:09.672Z,14.80
2023-03-04T11:38:40.813Z,14.17
2023-03-04T11:41:13.650Z,12.73
2023-03-04T11:43:43.391Z,13.67
2023-03-04T11:46:27.195Z,15.30
2023-03-04T11:49:04.169Z,13.50
2023-03-04T11:51:34.417Z,14.30
2023-03-04T11:54:18.511Z,12.67
2023-03-04T11:56:51.322Z,14.00
2023-03-04T11:59:41.568Z,13.27
2023-03-04T12:02:14.877Z,14.70
2023-03-04T12:05:15.949Z,14.27
2023-03-04T12:08:01.184Z,13.67
2023-03-04T12:10:31.341Z,14.03
2023-03-04T12:13:39.116Z,14.10
2023-03-04T12:16:20.607Z,13.03
2023-03-04T12:19:02.247Z,14.57
2023-03-04T12:21:42.500Z,14.43
2023-03-04T12:24:24.986Z,13.30
2023-03-04T12:26:56.559Z,13.97
2023-03-04T12:29:31.257Z,14.27
2023-03-04T12:32:05.215Z,15.13
2023-03-04T12:34:58.800Z,14.17
2023-03-04T12:37:35.619Z,13.67
2023-03-04T12:40:17.290Z,13.77
2023-03-04T12:42:57.545Z,14.27
2023-03-04T12:45:39.732Z,14.70
2023-03-04T12:48:20.926Z,13.60
2023-03-04T12:50:56.382Z,12.43
2023-03-04T12:53:30.154Z,13.33
2023-03-04T12:55:58.771Z,15.30
2023-03-04T12:58:28.040Z,15.27
2023-03-04T13:01:01.795Z,13.47
2023-03-04T13:03:38.995Z,12.97
2023-03-04T13:06:24.952Z,13.17
2023-03-04T13:09:02.156Z,13.63
2023-03-04T13:11:52.875Z,13.63
2023-03-04T13:14:31.569Z,14.03
2023-03-04T13:17:01.820Z,13.63
2023-03-04T13:19:53.867Z,13.83
2023-03-04T13:22:30.005Z,13.90
2023-03-04T13:24:58.362Z,12.80
2023-03-04T13:27:49.236Z,12.53
2023-03-04T13:30:41.438Z,13.50
2023-03-04T13:33:47.652Z,12.47
2023-03-04T13:37:04.387Z,12.27
2023-03-04T13:39:37.378Z,11.37
2023-03-04T13:42:06.505Z,11.77
2023-03-04T13:45:04.300Z,11.97
2023-03-04T13:47:44.491Z,12.40
2023-03-04T13:50:29.905Z,13.03
2023-03-04T13:53:01.914Z,13.23
2023-03-04T13:55:37.041Z,11.93
2023-03-04T13:58:16.174Z,12.17
2023-03-04T14:00:52.084Z,12.03
2023-03-04T14:03:23.000Z,13.40
2023-03-04T14:06:12.423Z,13.53
2023-03-04T14:08:40.018Z,12.93
2023-03-04T14:11:14.150Z,12.80
2023-03-04T14:13:42.178Z,11.67
2023-03-04T14:16:10.252Z,13.07
2023-03-04T14:18:38.769Z,12.77
2023-03-04T14:21:06.967Z,12.33
2023-03-04T14:23:36.535Z,11.60
2023-03-04T14:26:08.932Z,12.20
2023-03-04T14:28:46.301Z,12.37
2023-03-04T14:31:19.009Z,12.03
2023-03-04T14:33:48.830Z,12.03
2023-03-04T14:36:19.725Z,12.93
2023-03-04T14:38:53.251Z,12.17
2023-03-04T14:41:24.094Z,12.63
2023-03-04T14:43:58.165Z,12.90
2023-03-04T14:46:27.994Z,12.20
2023-03-04T14:48:57.613Z,12.73
2023-03-04T14:51:34.991Z,12.80
2023-03-04T14:54:02.597Z,11.43
2023-03-04T14:56:31.018Z,12.33
2023-03-04T14:59:00.108Z,11.43
2023-03-04T15:01:33.556Z,11.90
2023-03-04T15:04:03.352Z,13.10
2023-03-04T15:06:32.485Z,12.70
2023-03-04T15:09:02.277Z,12.70
2023-03-04T15:11:32.537Z,11.67
2023-03-04T15:14:01.887Z,11.67
2023-03-04T15:16:31.207Z,12.20
2023-03-04T15:19:02.062Z,12.20
2023-03-04T15:21:32.646Z,12.07
2023-03-04T15:24:00.392Z,12.90
2023-03-04T15:26:28.005Z,12.30
2023-03-04T15:28:55.508Z,11.97
2023-03-04T15:31:25.748Z,12.13
2023-03-04T15:33:53.966Z,12.30
2023-03-04T15:36:23.685Z,11.87
2023-03-04T15:38:52.854Z,11.63
2023-03-04T15:41:23.977Z,11.77
2023-03-04T15:43:51.787Z,11.20
2023-03-04T15:46:19.604Z,11.67
2023-03-04T15:48:49.212Z,12.63
2023-03-04T15:51:18.161Z,11.80
2023-03-04T15:53:48.279Z,11.00
2023-03-04T15:56:17.916Z,11.90
2023-03-04T15:58:47.876Z,11.13
2023-03-04T16:01:17.274Z,11.50
2023-03-04T16:03:44.867Z,10.37
2023-03-04T16:06:15.420Z,9.83
2023-03-04T16:08:43.280Z,11.17
2023-03-04T16:11:15.274Z,11.50
2023-03-04T16:13:42.775Z,10.80
2023-03-04T16:16:11.556Z,10.37
2023-03-04T16:18:39.176Z,11.30
2023-03-04T16:21:06.956Z,11.23
2023-03-04T16:23:39.970Z,11.80
2023-03-04T16:26:12.947Z,10.40
2023-03-04T16:28:40.561Z,10.63
2023-03-04T16:31:08.397Z,11.13
2023-03-04T16:33:36.442Z,11.23
2023-03-04T16:36:05.402Z,10.13
2023-03-04T16:38:34.548Z,11.07
2023-03-04T16:41:03.565Z,9.97
2023-03-04T16:43:31.421Z,10.43
2023-03-04T16:45:59.051Z,10.73
2023-03-04T16:48:26.613Z,9.80
2023-03-04T16:50:54.370Z,12.63
2023-03-04T16:53:27.998Z,9.90
2023-03-04T16:55:55.734Z,11.47
2023-03-04T16:58:24.698Z,10.57
2023-03-04T17:00:52.287Z,11.00
2023-03-04T17:03:19.856Z,10.57
2023-03-04T17:05:47.749Z,9.97
2023-03-04T17:08:15.337Z,11.07
2023-03-04T17:10:43.077Z,11.13
2023-03-04T17:13:10.731Z,11.47
2023-03-04T17:15:42.742Z,10.50
2023-03-04T17:18:10.439Z,10.67
2023-03-04T17:20:37.958Z,11.70
2023-03-04T17:23:05.901Z,11.43
2023-03-04T17:25:34.405Z,11.93
2023-03-04T17:28:02.144Z,11.23
2023-03-04T17:30:29.731Z,11.73
2023-03-04T17:33:00.060Z,11.83
2023-03-04T17:35:27.633Z,11.03
2023-03-04T17:37:55.191Z,12.30
2023-03-04T17:40:22.683Z,11.50
2023-03-04T17:42:50.192Z,12.70
2023-03-04T17:45:17.954Z,12.13
2023-03-04T17:47:45.588Z,11.40
2023-03-04T17:50:14.734Z,11.77
2023-03-04T17:52:42.268Z,12.33
2023-03-04T17:55:11.317Z,11.97
2023-03-04T17:57:39.333Z,12.33
2023-03-04T18:00:08.239Z,11.17
2023-03-04T18:02:35.856Z,12.47
2023-03-04T18:05:06.715Z,12.10
2023-03-04T18:07:35.586Z,12.77
2023-03-04T18:10:03.373Z,12.77
2023-03-04T18:12:30.939Z,11.63
2023-03-04T18:14:58.475Z,12.47
2023-03-04T18:17:26.500Z,12.23
2023-03-04T18:19:54.064Z,12.50
2023-03-04T18:22:21.672Z,12.20
2023-03-04T18:24:50.625Z,12.27
2023-03-04T18:27:18.190Z,11.97
2023-03-04T18:29:45.704Z,13.67
2023-03-04T18:32:13.598Z,12.57
2023-03-04T18:34:41.269Z,13.53
2023-03-04T18:37:08.848Z,19.73
2023-03-04T18:39:37.016Z,15.80
2023-03-04T18:42:06.237Z,13.37
2023-03-04T18:44:33.830Z,13.03
2023-03-04T18:47:01.452Z,12.53
2023-03-04T18:49:29.031Z,12.97
2023-03-04T18:51:57.240Z,13.13
2023-03-04T18:54:24.953Z,12.87
2023-03-04T18:56:54.044Z,15.20
2023-03-04T18:59:25.720Z,14.60
2023-03-04T19:01:54.290Z,12.73
2023-03-04T19:04:23.222Z,15.50
2023-03-04T19:06:50.825Z,13.47
2023-03-04T19:09:18.336Z,14.93
2023-03-04T19:11:45.863Z,16.83
2023-03-04T19:14:13.683Z,23.97
2023-03-04T19:16:42.618Z,16.70
2023-03-04T19:19:10.332Z,14.73
2023-03-04T19:21:39.119Z,16.70
2023-03-04T19:24:07.460Z,19.30
2023-03-04T19:26:35.291Z,13.90
2023-03-04T19:29:02.853Z,13.27
2023-03-04T19:31:30.383Z,14.07
2023-03-04T19:33:59.487Z,13.33
2023-03-04T19:36:27.260Z,13.43
2023-03-04T19:38:55.410Z,13.97
2023-03-04T19:41:23.275Z,14.57
2023-03-04T19:43:51.014Z,13.90
2023-03-04T19:46:18.647Z,12.80
2023-03-04T19:48:46.239Z,13.73
2023-03-04T19:51:20.398Z,13.40
2023-03-04T19:53:48.381Z,12.93
2023-03-04T19:56:16.566Z,13.40
2023-03-04T19:58:44.234Z,14.80
2023-03-04T20:01:20.842Z,13.17
2023-03-04T20:03:48.447Z,13.57
2023-03-04T20:06:15.983Z,15.27
2023-03-04T20:08:44.823Z,15.13
2023-03-04T20:11:13.704Z,15.03
2023-03-04T20:13:41.235Z,20.20
2023-03-04T20:16:09.700Z,14.83
2023-03-04T20:18:37.625Z,14.17
2023-03-04T20:21:06.300Z,14.63
2023-03-04T20:23:34.034Z,14.83
2023-03-04T20:26:03.151Z,16.17
2023-03-04T20:28:30.943Z,14.13
2023-03-04T20:31:10.836Z,13.87
2023-03-04T20:33:38.547Z,13.40
2023-03-04T20:36:06.653Z,13.47
2023-03-04T20:38:36.638Z,11.93
2023-03-04T20:41:06.449Z,13.07
2023-03-04T20:43:34.162Z,13.60
2023-03-04T20:46:32.267Z,13.03
2023-03-04T20:49:01.983Z,13.37
2023-03-04T20:51:30.004Z,12.53
2023-03-04T20:53:58.344Z,12.87
2023-03-04T20:56:28.317Z,13.53
2023-03-04T20:58:56.945Z,12.63
2023-03-04T21:01:25.733Z,12.60
2023-03-04T21:03:53.692Z,14.77
2023-03-04T21:06:21.261Z,13.87
2023-03-04T21:08:48.883Z,24.27
2023-03-04T21:11:17.778Z,13.60
2023-03-04T21:13:53.780Z,13.47
2023-03-04T21:16:21.935Z,12.83
2023-03-04T21:18:49.733Z,11.53
2023-03-04T21:21:21.983Z,12.37
2023-03-04T21:23:50.519Z,11.67
2023-03-04T21:26:18.673Z,12.03
2023-03-04T21:28:47.792Z,11.63
2023-03-04T21:31:17.880Z,11.67
2023-03-04T21:33:45.547Z,10.90
2023-03-04T21:36:13.935Z,11.73
2023-03-04T21:38:41.934Z,11.60
2023-03-04T21:41:13.042Z,11.70
2023-03-04T21:43:40.713Z,13.43
2023-03-04T21:46:10.899Z,12.47
2023-03-04T21:48:38.564Z,13.23
2023-03-04T21:51:08.646Z,11.50
2023-03-04T21:53:36.810Z,12.43
2023-03-04T21:56:05.430Z,12.97
2023-03-04T21:58:35.139Z,10.90
2023-03-04T22:01:11.490Z,13.17
2023-03-04T22:03:39.175Z,12.80
2023-03-04T22:06:08.080Z,14.20
2023-03-04T22:08:35.940Z,11.30
2023-03-04T22:11:04.279Z,12.70
2023-03-04T22:13:31.820Z,12.90
2023-03-04T22:15:59.804Z,12.23
2023-03-04T22:18:29.003Z,12.73
2023-03-04T22:21:01.121Z,13.33
2023-03-04T22:23:28.997Z,12.43
2023-03-04T22:25:58.990Z,12.13
2023-03-04T22:28:28.417Z,12.13
2023-03-04T22:30:56.982Z,12.63
2023-03-04T22:33:24.860Z,12.77
2023-03-04T22:35:53.878Z,13.37
2023-03-04T22:38:22.505Z,11.83
2023-03-04T22:40:50.534Z,13.63
2023-03-04T22:43:18.045Z,11.53
2023-03-04T22:45:45.695Z,12.70
2023-03-04T22:48:14.459Z,13.13
2023-03-04T22:50:42.016Z,13.03
2023-03-04T22:53:10.923Z,12.70
2023-03-04T22:55:38.457Z,12.50
2023-03-04T22:58:05.978Z,13.40
2023-03-04T23:00:33.663Z,13.50
2023-03-04T23:03:01.199Z,13.83
2023-03-04T23:05:29.401Z,12.87
2023-03-04T23:07:56.911Z,13.00
2023-03-04T23:10:26.250Z,13.03
2023-03-04T23:12:54.492Z,13.17
2023-03-04T23:15:22.750Z,13.20
2023-03-04T23:17:50.307Z,13.23
2023-03-04T23:20:19.847Z,12.80
2023-03-04T23:22:48.244Z,12.40
2023-03-04T23:25:16.041Z,13.27
2023-03-04T23:27:45.180Z,14.37
2023-03-04T23:30:16.216Z,15.40
2023-03-04T23:32:44.261Z,14.50
2023-03-04T23:35:11.847Z,13.80
2023-03-04T23:37:39.345Z,14.33
2023-03-04T23:40:08.555Z,14.93
2023-03-04T23:42:36.094Z,13.70
2023-03-04T23:45:05.900Z,13.53
2023-03-04T23:47:33.708Z,15.77
2023-03-04T23:50:02.244Z,14.23
2023-03-04T23:52:29.766Z,14.27
2023-03-04T23:54:57.281Z,14.37
2023-03-04T23:57:25.164Z,14.07
2023-03-04T23:59:52.673Z,15.10
